sensor_id;sensor_type;location;lat;lon;timestamp;P1;durP1;ratioP1;P2;durP2;ratioP2
74152;SDS011;62505;46.070;14.492;2023-06-22T00:00:49;8.48;;;6.18;;
74152;SDS011;62505;46.070;14.492;2023-06-22T00:03:18;10.63;;;6.85;;
74152;SDS011;62505;46.070;14.492;2023-06-22T00:05:46;9.23;;;5.90;;
74152;SDS011;62505;46.070;14.492;2023-06-22T00:08:13;11.23;;;6.53;;
74152;SDS011;62505;46.070;14.492;2023-06-22T00:10:40;8.95;;;6.28;;
74152;SDS011;62505;46.070;14.492;2023-06-22T00:13:08;9.60;;;6.90;;
74152;SDS011;62505;46.070;14.492;2023-06-22T00:15:35;10.00;;;6.50;;
74152;SDS011;62505;46.070;14.492;2023-06-22T00:18:04;8.95;;;6.47;;
74152;SDS011;62505;46.070;14.492;2023-06-22T00:20:32;9.80;;;6.80;;
74152;SDS011;62505;46.070;14.492;2023-06-22T00:23:02;8.90;;;6.18;;
74152;SDS011;62505;46.070;14.492;2023-06-22T00:25:32;8.55;;;6.70;;
74152;SDS011;62505;46.070;14.492;2023-06-22T00:27:59;8.18;;;6.28;;
74152;SDS011;62505;46.070;14.492;2023-06-22T00:30:26;10.77;;;6.70;;
74152;SDS011;62505;46.070;14.492;2023-06-22T00:32:53;11.48;;;7.03;;
74152;SDS011;62505;46.070;14.492;2023-06-22T00:35:20;10.80;;;6.63;;
74152;SDS011;62505;46.070;14.492;2023-06-22T00:37:49;10.18;;;6.63;;
74152;SDS011;62505;46.070;14.492;2023-06-22T00:40:16;9.50;;;6.43;;
74152;SDS011;62505;46.070;14.492;2023-06-22T00:42:46;10.38;;;6.38;;
74152;SDS011;62505;46.070;14.492;2023-06-22T00:45:13;8.68;;;6.28;;
74152;SDS011;62505;46.070;14.492;2023-06-22T00:47:40;10.60;;;6.65;;
74152;SDS011;62505;46.070;14.492;2023-06-22T00:50:08;10.20;;;6.90;;
74152;SDS011;62505;46.070;14.492;2023-06-22T00:52:43;10.35;;;6.65;;
74152;SDS011;62505;46.070;14.492;2023-06-22T00:55:12;9.82;;;6.45;;
74152;SDS011;62505;46.070;14.492;2023-06-22T00:57:43;8.00;;;6.68;;
74152;SDS011;62505;46.070;14.492;2023-06-22T01:00:11;10.32;;;6.32;;
74152;SDS011;62505;46.070;14.492;2023-06-22T01:02:43;10.50;;;6.80;;
74152;SDS011;62505;46.070;14.492;2023-06-22T01:05:11;13.52;;;6.80;;
74152;SDS011;62505;46.070;14.492;2023-06-22T01:07:39;8.68;;;6.60;;
74152;SDS011;62505;46.070;14.492;2023-06-22T01:10:11;9.10;;;6.38;;
74152;SDS011;62505;46.070;14.492;2023-06-22T01:12:45;13.00;;;7.18;;
74152;SDS011;62505;46.070;14.492;2023-06-22T01:15:18;9.15;;;6.47;;
74152;SDS011;62505;46.070;14.492;2023-06-22T01:17:51;11.23;;;6.78;;
74152;SDS011;62505;46.070;14.492;2023-06-22T01:20:19;10.15;;;7.00;;
74152;SDS011;62505;46.070;14.492;2023-06-22T01:22:51;11.13;;;7.30;;
74152;SDS011;62505;46.070;14.492;2023-06-22T01:25:31;10.98;;;6.40;;
74152;SDS011;62505;46.070;14.492;2023-06-22T01:28:14;10.23;;;7.07;;
74152;SDS011;62505;46.070;14.492;2023-06-22T01:30:52;12.65;;;6.82;;
74152;SDS011;62505;46.070;14.492;2023-06-22T01:33:28;10.32;;;6.40;;
74152;SDS011;62505;46.070;14.492;2023-06-22T01:35:56;9.32;;;6.85;;
74152;SDS011;62505;46.070;14.492;2023-06-22T01:38:24;12.70;;;6.90;;
74152;SDS011;62505;46.070;14.492;2023-06-22T01:40:51;10.77;;;7.03;;
74152;SDS011;62505;46.070;14.492;2023-06-22T01:43:19;11.27;;;7.05;;
74152;SDS011;62505;46.070;14.492;2023-06-22T01:45:49;11.30;;;6.70;;
74152;SDS011;62505;46.070;14.492;2023-06-22T01:48:18;10.45;;;6.65;;
74152;SDS011;62505;46.070;14.492;2023-06-22T01:50:46;12.02;;;6.55;;
74152;SDS011;62505;46.070;14.492;2023-06-22T01:53:13;9.05;;;6.65;;
74152;SDS011;62505;46.070;14.492;2023-06-22T01:55:40;9.95;;;7.10;;
74152;SDS011;62505;46.070;14.492;2023-06-22T01:58:07;12.05;;;6.80;;
74152;SDS011;62505;46.070;14.492;2023-06-22T02:00:35;10.48;;;7.25;;
74152;SDS011;62505;46.070;14.492;2023-06-22T02:03:05;9.10;;;6.45;;
74152;SDS011;62505;46.070;14.492;2023-06-22T02:05:39;8.27;;;6.22;;
74152;SDS011;62505;46.070;14.492;2023-06-22T02:08:13;11.23;;;7.03;;
74152;SDS011;62505;46.070;14.492;2023-06-22T02:10:43;13.38;;;6.57;;
74152;SDS011;62505;46.070;14.492;2023-06-22T02:13:12;11.35;;;7.22;;
74152;SDS011;62505;46.070;14.492;2023-06-22T02:15:40;12.13;;;7.65;;
74152;SDS011;62505;46.070;14.492;2023-06-22T02:18:07;10.82;;;7.43;;
74152;SDS011;62505;46.070;14.492;2023-06-22T02:20:37;11.50;;;6.82;;
74152;SDS011;62505;46.070;14.492;2023-06-22T02:23:04;13.15;;;7.13;;
74152;SDS011;62505;46.070;14.492;2023-06-22T02:25:31;8.90;;;6.70;;
74152;SDS011;62505;46.070;14.492;2023-06-22T02:27:58;10.40;;;6.55;;
74152;SDS011;62505;46.070;14.492;2023-06-22T02:30:25;11.05;;;6.40;;
74152;SDS011;62505;46.070;14.492;2023-06-22T02:32:52;9.73;;;6.40;;
74152;SDS011;62505;46.070;14.492;2023-06-22T02:35:23;10.27;;;6.60;;
74152;SDS011;62505;46.070;14.492;2023-06-22T02:37:52;10.95;;;7.15;;
74152;SDS011;62505;46.070;14.492;2023-06-22T02:40:19;10.82;;;6.78;;
74152;SDS011;62505;46.070;14.492;2023-06-22T02:42:46;9.13;;;6.53;;
74152;SDS011;62505;46.070;14.492;2023-06-22T02:45:13;16.52;;;6.75;;
74152;SDS011;62505;46.070;14.492;2023-06-22T02:47:40;10.55;;;7.22;;
74152;SDS011;62505;46.070;14.492;2023-06-22T02:50:07;15.70;;;7.68;;
74152;SDS011;62505;46.070;14.492;2023-06-22T02:52:34;12.10;;;6.78;;
74152;SDS011;62505;46.070;14.492;2023-06-22T02:55:03;14.43;;;6.38;;
74152;SDS011;62505;46.070;14.492;2023-06-22T02:57:32;10.10;;;6.82;;
74152;SDS011;62505;46.070;14.492;2023-06-22T02:59:59;10.88;;;6.63;;
74152;SDS011;62505;46.070;14.492;2023-06-22T03:02:26;14.88;;;7.10;;
74152;SDS011;62505;46.070;14.492;2023-06-22T03:04:53;11.20;;;6.60;;
74152;SDS011;62505;46.070;14.492;2023-06-22T03:07:19;10.88;;;7.30;;
74152;SDS011;62505;46.070;14.492;2023-06-22T03:09:46;11.52;;;7.10;;
74152;SDS011;62505;46.070;14.492;2023-06-22T03:12:14;9.52;;;6.63;;
74152;SDS011;62505;46.070;14.492;2023-06-22T03:14:41;14.48;;;7.85;;
74152;SDS011;62505;46.070;14.492;2023-06-22T03:17:09;7.90;;;7.10;;
74152;SDS011;62505;46.070;14.492;2023-06-22T03:19:36;10.68;;;7.20;;
74152;SDS011;62505;46.070;14.492;2023-06-22T03:22:03;11.77;;;7.65;;
74152;SDS011;62505;46.070;14.492;2023-06-22T03:24:38;9.82;;;6.78;;
74152;SDS011;62505;46.070;14.492;2023-06-22T03:27:05;10.95;;;7.10;;
74152;SDS011;62505;46.070;14.492;2023-06-22T03:29:33;13.55;;;7.15;;
74152;SDS011;62505;46.070;14.492;2023-06-22T03:32:00;11.68;;;7.13;;
74152;SDS011;62505;46.070;14.492;2023-06-22T03:34:27;11.05;;;6.45;;
74152;SDS011;62505;46.070;14.492;2023-06-22T03:36:54;10.38;;;6.85;;
74152;SDS011;62505;46.070;14.492;2023-06-22T03:39:20;10.85;;;7.28;;
74152;SDS011;62505;46.070;14.492;2023-06-22T03:41:47;13.70;;;7.13;;
74152;SDS011;62505;46.070;14.492;2023-06-22T03:44:14;10.43;;;6.85;;
74152;SDS011;62505;46.070;14.492;2023-06-22T03:46:42;14.48;;;7.40;;
74152;SDS011;62505;46.070;14.492;2023-06-22T03:49:09;9.85;;;7.03;;
74152;SDS011;62505;46.070;14.492;2023-06-22T03:51:36;13.70;;;6.88;;
74152;SDS011;62505;46.070;14.492;2023-06-22T03:54:03;13.35;;;7.22;;
74152;SDS011;62505;46.070;14.492;2023-06-22T03:56:30;11.18;;;6.97;;
74152;SDS011;62505;46.070;14.492;2023-06-22T03:58:57;9.80;;;7.03;;
74152;SDS011;62505;46.070;14.492;2023-06-22T04:01:24;9.27;;;6.65;;
74152;SDS011;62505;46.070;14.492;2023-06-22T04:03:52;7.47;;;6.35;;
74152;SDS011;62505;46.070;14.492;2023-06-22T04:06:19;10.48;;;6.93;;
74152;SDS011;62505;46.070;14.492;2023-06-22T04:08:49;11.68;;;7.40;;
74152;SDS011;62505;46.070;14.492;2023-06-22T04:11:16;11.20;;;6.65;;
74152;SDS011;62505;46.070;14.492;2023-06-22T04:13:43;14.43;;;7.03;;
74152;SDS011;62505;46.070;14.492;2023-06-22T04:16:10;9.73;;;6.75;;
74152;SDS011;62505;46.070;14.492;2023-06-22T04:18:37;11.40;;;6.85;;
74152;SDS011;62505;46.070;14.492;2023-06-22T04:21:05;11.48;;;7.45;;
74152;SDS011;62505;46.070;14.492;2023-06-22T04:23:32;15.55;;;7.00;;
74152;SDS011;62505;46.070;14.492;2023-06-22T04:25:59;9.80;;;7.13;;
74152;SDS011;62505;46.070;14.492;2023-06-22T04:28:26;11.40;;;7.47;;
74152;SDS011;62505;46.070;14.492;2023-06-22T04:30:52;12.90;;;7.47;;
74152;SDS011;62505;46.070;14.492;2023-06-22T04:33:23;16.35;;;7.82;;
74152;SDS011;62505;46.070;14.492;2023-06-22T04:35:50;12.60;;;7.13;;
74152;SDS011;62505;46.070;14.492;2023-06-22T04:38:18;11.02;;;7.07;;
74152;SDS011;62505;46.070;14.492;2023-06-22T04:40:46;12.23;;;7.45;;
74152;SDS011;62505;46.070;14.492;2023-06-22T04:43:13;10.70;;;7.28;;
74152;SDS011;62505;46.070;14.492;2023-06-22T04:45:40;12.18;;;7.50;;
74152;SDS011;62505;46.070;14.492;2023-06-22T04:48:07;12.68;;;7.47;;
74152;SDS011;62505;46.070;14.492;2023-06-22T04:50:36;9.00;;;7.18;;
74152;SDS011;62505;46.070;14.492;2023-06-22T04:53:04;10.93;;;7.30;;
74152;SDS011;62505;46.070;14.492;2023-06-22T04:55:33;11.60;;;8.07;;
74152;SDS011;62505;46.070;14.492;2023-06-22T04:58:03;12.23;;;7.13;;
74152;SDS011;62505;46.070;14.492;2023-06-22T05:00:30;10.00;;;7.10;;
74152;SDS011;62505;46.070;14.492;2023-06-22T05:03:01;11.55;;;7.55;;
74152;SDS011;62505;46.070;14.492;2023-06-22T05:05:28;13.80;;;8.07;;
74152;SDS011;62505;46.070;14.492;2023-06-22T05:07:56;12.77;;;8.00;;
74152;SDS011;62505;46.070;14.492;2023-06-22T05:10:25;14.60;;;8.25;;
74152;SDS011;62505;46.070;14.492;2023-06-22T05:12:53;11.38;;;7.63;;
74152;SDS011;62505;46.070;14.492;2023-06-22T05:15:20;11.55;;;7.22;;
74152;SDS011;62505;46.070;14.492;2023-06-22T05:17:51;12.75;;;8.25;;
74152;SDS011;62505;46.070;14.492;2023-06-22T05:20:18;11.85;;;7.43;;
74152;SDS011;62505;46.070;14.492;2023-06-22T05:22:47;9.68;;;6.80;;
74152;SDS011;62505;46.070;14.492;2023-06-22T05:25:13;13.93;;;7.85;;
74152;SDS011;62505;46.070;14.492;2023-06-22T05:27:40;12.02;;;7.53;;
74152;SDS011;62505;46.070;14.492;2023-06-22T05:30:10;10.07;;;7.45;;
74152;SDS011;62505;46.070;14.492;2023-06-22T05:32:37;9.48;;;7.70;;
74152;SDS011;62505;46.070;14.492;2023-06-22T05:35:04;13.32;;;7.78;;
74152;SDS011;62505;46.070;14.492;2023-06-22T05:37:32;11.23;;;7.22;;
74152;SDS011;62505;46.070;14.492;2023-06-22T05:39:59;14.23;;;7.55;;
74152;SDS011;62505;46.070;14.492;2023-06-22T05:42:25;12.38;;;7.30;;
74152;SDS011;62505;46.070;14.492;2023-06-22T05:44:52;13.43;;;8.07;;
74152;SDS011;62505;46.070;14.492;2023-06-22T05:47:21;13.23;;;8.00;;
74152;SDS011;62505;46.070;14.492;2023-06-22T05:49:48;10.60;;;7.07;;
74152;SDS011;62505;46.070;14.492;2023-06-22T05:52:15;12.68;;;8.15;;
74152;SDS011;62505;46.070;14.492;2023-06-22T05:54:42;11.45;;;8.10;;
74152;SDS011;62505;46.070;14.492;2023-06-22T05:57:09;9.32;;;6.95;;
74152;SDS011;62505;46.070;14.492;2023-06-22T05:59:46;11.50;;;7.63;;
74152;SDS011;62505;46.070;14.492;2023-06-22T06:02:13;9.25;;;7.50;;
74152;SDS011;62505;46.070;14.492;2023-06-22T06:04:41;12.18;;;7.80;;
74152;SDS011;62505;46.070;14.492;2023-06-22T06:07:08;11.00;;;7.63;;
74152;SDS011;62505;46.070;14.492;2023-06-22T06:09:35;14.00;;;7.90;;
74152;SDS011;62505;46.070;14.492;2023-06-22T06:12:02;11.18;;;7.85;;
74152;SDS011;62505;46.070;14.492;2023-06-22T06:14:30;10.45;;;7.40;;
74152;SDS011;62505;46.070;14.492;2023-06-22T06:16:56;13.13;;;7.95;;
74152;SDS011;62505;46.070;14.492;2023-06-22T06:19:23;14.20;;;7.47;;
74152;SDS011;62505;46.070;14.492;2023-06-22T06:21:51;13.63;;;8.00;;
74152;SDS011;62505;46.070;14.492;2023-06-22T06:24:18;11.30;;;7.70;;
74152;SDS011;62505;46.070;14.492;2023-06-22T06:26:45;11.60;;;7.43;;
74152;SDS011;62505;46.070;14.492;2023-06-22T06:29:12;12.80;;;7.45;;
74152;SDS011;62505;46.070;14.492;2023-06-22T06:31:41;12.25;;;7.78;;
74152;SDS011;62505;46.070;14.492;2023-06-22T06:34:08;12.15;;;7.93;;
74152;SDS011;62505;46.070;14.492;2023-06-22T06:36:35;11.98;;;7.53;;
74152;SDS011;62505;46.070;14.492;2023-06-22T06:39:03;10.57;;;7.72;;
74152;SDS011;62505;46.070;14.492;2023-06-22T06:41:30;10.70;;;7.60;;
74152;SDS011;62505;46.070;14.492;2023-06-22T06:43:57;12.05;;;7.88;;
74152;SDS011;62505;46.070;14.492;2023-06-22T06:46:24;10.90;;;7.35;;
74152;SDS011;62505;46.070;14.492;2023-06-22T06:48:51;11.43;;;7.43;;
74152;SDS011;62505;46.070;14.492;2023-06-22T06:51:18;12.05;;;7.75;;
74152;SDS011;62505;46.070;14.492;2023-06-22T06:53:44;14.70;;;7.95;;
74152;SDS011;62505;46.070;14.492;2023-06-22T06:56:13;12.60;;;7.80;;
74152;SDS011;62505;46.070;14.492;2023-06-22T06:58:40;12.15;;;7.85;;
74152;SDS011;62505;46.070;14.492;2023-06-22T07:01:10;11.45;;;7.97;;
74152;SDS011;62505;46.070;14.492;2023-06-22T07:03:37;11.32;;;7.80;;
74152;SDS011;62505;46.070;14.492;2023-06-22T07:06:03;13.98;;;7.72;;
74152;SDS011;62505;46.070;14.492;2023-06-22T07:08:30;12.43;;;8.05;;
74152;SDS011;62505;46.070;14.492;2023-06-22T07:10:57;12.75;;;8.30;;
74152;SDS011;62505;46.070;14.492;2023-06-22T07:13:27;12.60;;;7.82;;
74152;SDS011;62505;46.070;14.492;2023-06-22T07:15:54;14.80;;;8.02;;
74152;SDS011;62505;46.070;14.492;2023-06-22T07:18:21;12.43;;;7.20;;
74152;SDS011;62505;46.070;14.492;2023-06-22T07:20:48;12.18;;;8.30;;
74152;SDS011;62505;46.070;14.492;2023-06-22T07:23:15;11.40;;;8.20;;
74152;SDS011;62505;46.070;14.492;2023-06-22T07:25:42;9.95;;;7.18;;
74152;SDS011;62505;46.070;14.492;2023-06-22T07:28:09;11.95;;;7.80;;
74152;SDS011;62505;46.070;14.492;2023-06-22T07:30:38;12.27;;;8.60;;
74152;SDS011;62505;46.070;14.492;2023-06-22T07:33:05;12.15;;;7.57;;
74152;SDS011;62505;46.070;14.492;2023-06-22T07:35:33;13.95;;;8.30;;
74152;SDS011;62505;46.070;14.492;2023-06-22T07:38:00;11.30;;;8.57;;
74152;SDS011;62505;46.070;14.492;2023-06-22T07:40:27;11.15;;;8.18;;
74152;SDS011;62505;46.070;14.492;2023-06-22T07:42:54;11.30;;;8.25;;
74152;SDS011;62505;46.070;14.492;2023-06-22T07:45:21;9.50;;;7.72;;
74152;SDS011;62505;46.070;14.492;2023-06-22T07:47:49;11.25;;;8.25;;
74152;SDS011;62505;46.070;14.492;2023-06-22T07:50:16;11.40;;;8.32;;
74152;SDS011;62505;46.070;14.492;2023-06-22T07:52:43;13.07;;;8.30;;
74152;SDS011;62505;46.070;14.492;2023-06-22T07:55:10;10.35;;;7.97;;
74152;SDS011;62505;46.070;14.492;2023-06-22T07:57:37;13.38;;;8.20;;
74152;SDS011;62505;46.070;14.492;2023-06-22T08:00:04;11.52;;;7.78;;
74152;SDS011;62505;46.070;14.492;2023-06-22T08:02:39;11.15;;;7.30;;
74152;SDS011;62505;46.070;14.492;2023-06-22T08:05:08;12.10;;;8.57;;
74152;SDS011;62505;46.070;14.492;2023-06-22T08:07:36;10.73;;;7.93;;
74152;SDS011;62505;46.070;14.492;2023-06-22T08:10:03;14.13;;;7.70;;
74152;SDS011;62505;46.070;14.492;2023-06-22T08:12:30;12.82;;;8.27;;
74152;SDS011;62505;46.070;14.492;2023-06-22T08:14:57;12.95;;;8.88;;
74152;SDS011;62505;46.070;14.492;2023-06-22T08:17:24;16.80;;;8.65;;
74152;SDS011;62505;46.070;14.492;2023-06-22T08:19:51;12.07;;;8.93;;
74152;SDS011;62505;46.070;14.492;2023-06-22T08:22:19;11.43;;;8.95;;
74152;SDS011;62505;46.070;14.492;2023-06-22T08:24:46;12.00;;;7.88;;
74152;SDS011;62505;46.070;14.492;2023-06-22T08:27:13;13.05;;;9.45;;
74152;SDS011;62505;46.070;14.492;2023-06-22T08:29:41;15.27;;;8.93;;
74152;SDS011;62505;46.070;14.492;2023-06-22T08:32:08;13.73;;;8.52;;
74152;SDS011;62505;46.070;14.492;2023-06-22T08:34:35;14.20;;;9.30;;
74152;SDS011;62505;46.070;14.492;2023-06-22T08:37:07;18.65;;;7.88;;
74152;SDS011;62505;46.070;14.492;2023-06-22T08:39:35;12.52;;;8.00;;
74152;SDS011;62505;46.070;14.492;2023-06-22T08:42:02;17.52;;;9.32;;
74152;SDS011;62505;46.070;14.492;2023-06-22T08:44:29;16.65;;;9.00;;
74152;SDS011;62505;46.070;14.492;2023-06-22T08:46:56;15.05;;;9.02;;
74152;SDS011;62505;46.070;14.492;2023-06-22T08:49:23;13.43;;;8.70;;
74152;SDS011;62505;46.070;14.492;2023-06-22T08:51:50;12.23;;;8.13;;
74152;SDS011;62505;46.070;14.492;2023-06-22T08:54:18;12.23;;;8.75;;
74152;SDS011;62505;46.070;14.492;2023-06-22T08:56:47;14.10;;;9.45;;
74152;SDS011;62505;46.070;14.492;2023-06-22T08:59:14;14.60;;;9.80;;
74152;SDS011;62505;46.070;14.492;2023-06-22T09:01:41;15.55;;;9.57;;
74152;SDS011;62505;46.070;14.492;2023-06-22T09:04:13;13.52;;;9.13;;
74152;SDS011;62505;46.070;14.492;2023-06-22T09:06:40;12.90;;;9.05;;
74152;SDS011;62505;46.070;14.492;2023-06-22T09:09:10;13.75;;;8.68;;
74152;SDS011;62505;46.070;14.492;2023-06-22T09:11:38;14.75;;;8.70;;
74152;SDS011;62505;46.070;14.492;2023-06-22T09:14:07;16.08;;;9.07;;
74152;SDS011;62505;46.070;14.492;2023-06-22T09:16:34;13.57;;;8.60;;
74152;SDS011;62505;46.070;14.492;2023-06-22T09:19:01;14.52;;;8.98;;
74152;SDS011;62505;46.070;14.492;2023-06-22T09:21:28;11.63;;;8.45;;
74152;SDS011;62505;46.070;14.492;2023-06-22T09:23:55;13.65;;;8.82;;
74152;SDS011;62505;46.070;14.492;2023-06-22T09:26:22;11.60;;;8.60;;
74152;SDS011;62505;46.070;14.492;2023-06-22T09:28:50;10.10;;;8.48;;
74152;SDS011;62505;46.070;14.492;2023-06-22T09:31:18;14.10;;;8.88;;
74152;SDS011;62505;46.070;14.492;2023-06-22T09:33:50;15.05;;;9.05;;
74152;SDS011;62505;46.070;14.492;2023-06-22T09:36:18;14.35;;;9.05;;
74152;SDS011;62505;46.070;14.492;2023-06-22T09:38:44;11.32;;;7.68;;
74152;SDS011;62505;46.070;14.492;2023-06-22T09:41:11;14.60;;;8.60;;
74152;SDS011;62505;46.070;14.492;2023-06-22T09:43:38;14.32;;;9.02;;
74152;SDS011;62505;46.070;14.492;2023-06-22T09:46:05;13.60;;;7.82;;
74152;SDS011;62505;46.070;14.492;2023-06-22T09:48:35;12.98;;;8.43;;
74152;SDS011;62505;46.070;14.492;2023-06-22T09:51:02;15.80;;;8.63;;
74152;SDS011;62505;46.070;14.492;2023-06-22T09:53:29;12.27;;;7.70;;
74152;SDS011;62505;46.070;14.492;2023-06-22T09:55:56;13.77;;;8.18;;
74152;SDS011;62505;46.070;14.492;2023-06-22T09:58:23;11.20;;;7.75;;
74152;SDS011;62505;46.070;14.492;2023-06-22T10:00:50;12.45;;;8.27;;
74152;SDS011;62505;46.070;14.492;2023-06-22T10:03:18;15.30;;;8.50;;
74152;SDS011;62505;46.070;14.492;2023-06-22T10:05:46;11.75;;;8.30;;
74152;SDS011;62505;46.070;14.492;2023-06-22T10:08:13;16.50;;;8.90;;
74152;SDS011;62505;46.070;14.492;2023-06-22T10:10:40;19.98;;;9.80;;
74152;SDS011;62505;46.070;14.492;2023-06-22T10:13:07;13.93;;;8.60;;
74152;SDS011;62505;46.070;14.492;2023-06-22T10:15:35;12.60;;;9.00;;
74152;SDS011;62505;46.070;14.492;2023-06-22T10:18:03;13.40;;;8.43;;
74152;SDS011;62505;46.070;14.492;2023-06-22T10:20:29;16.25;;;8.27;;
74152;SDS011;62505;46.070;14.492;2023-06-22T10:22:58;12.85;;;9.05;;
74152;SDS011;62505;46.070;14.492;2023-06-22T10:25:24;16.67;;;9.02;;
74152;SDS011;62505;46.070;14.492;2023-06-22T10:27:52;14.57;;;8.60;;
74152;SDS011;62505;46.070;14.492;2023-06-22T10:30:19;16.30;;;7.90;;
74152;SDS011;62505;46.070;14.492;2023-06-22T10:32:46;13.02;;;8.48;;
74152;SDS011;62505;46.070;14.492;2023-06-22T10:35:13;14.27;;;7.97;;
74152;SDS011;62505;46.070;14.492;2023-06-22T10:37:41;11.23;;;8.25;;
74152;SDS011;62505;46.070;14.492;2023-06-22T10:40:11;11.18;;;8.00;;
74152;SDS011;62505;46.070;14.492;2023-06-22T10:42:38;10.98;;;8.02;;
74152;SDS011;62505;46.070;14.492;2023-06-22T10:45:06;12.15;;;8.20;;
74152;SDS011;62505;46.070;14.492;2023-06-22T10:47:33;12.23;;;8.27;;
74152;SDS011;62505;46.070;14.492;2023-06-22T10:50:00;10.43;;;7.97;;
74152;SDS011;62505;46.070;14.492;2023-06-22T10:52:28;9.65;;;7.47;;
74152;SDS011;62505;46.070;14.492;2023-06-22T10:54:55;12.32;;;7.68;;
74152;SDS011;62505;46.070;14.492;2023-06-22T10:57:23;10.32;;;8.15;;
74152;SDS011;62505;46.070;14.492;2023-06-22T10:59:50;10.57;;;8.02;;
74152;SDS011;62505;46.070;14.492;2023-06-22T11:02:17;12.85;;;7.47;;
74152;SDS011;62505;46.070;14.492;2023-06-22T11:04:44;11.23;;;7.70;;
74152;SDS011;62505;46.070;14.492;2023-06-22T11:07:11;12.82;;;7.43;;
74152;SDS011;62505;46.070;14.492;2023-06-22T11:09:38;9.45;;;7.25;;
74152;SDS011;62505;46.070;14.492;2023-06-22T11:12:05;11.27;;;7.63;;
74152;SDS011;62505;46.070;14.492;2023-06-22T11:14:34;10.68;;;7.55;;
74152;SDS011;62505;46.070;14.492;2023-06-22T11:17:01;11.40;;;7.50;;
74152;SDS011;62505;46.070;14.492;2023-06-22T11:19:27;12.27;;;7.97;;
74152;SDS011;62505;46.070;14.492;2023-06-22T11:21:54;10.95;;;7.85;;
74152;SDS011;62505;46.070;14.492;2023-06-22T11:24:21;8.85;;;7.53;;
74152;SDS011;62505;46.070;14.492;2023-06-22T11:26:48;11.20;;;7.57;;
74152;SDS011;62505;46.070;14.492;2023-06-22T11:29:15;11.35;;;7.47;;
74152;SDS011;62505;46.070;14.492;2023-06-22T11:31:43;12.60;;;8.07;;
74152;SDS011;62505;46.070;14.492;2023-06-22T11:34:10;10.95;;;7.85;;
74152;SDS011;62505;46.070;14.492;2023-06-22T11:36:37;11.38;;;7.28;;
74152;SDS011;62505;46.070;14.492;2023-06-22T11:39:04;13.00;;;8.10;;
74152;SDS011;62505;46.070;14.492;2023-06-22T11:41:31;10.70;;;6.70;;
74152;SDS011;62505;46.070;14.492;2023-06-22T11:43:58;10.50;;;7.63;;
74152;SDS011;62505;46.070;14.492;2023-06-22T11:46:24;9.57;;;7.43;;
74152;SDS011;62505;46.070;14.492;2023-06-22T11:48:53;9.90;;;7.68;;
74152;SDS011;62505;46.070;14.492;2023-06-22T11:51:20;10.10;;;7.55;;
74152;SDS011;62505;46.070;14.492;2023-06-22T11:53:47;10.20;;;7.45;;
74152;SDS011;62505;46.070;14.492;2023-06-22T11:56:13;11.10;;;7.80;;
74152;SDS011;62505;46.070;14.492;2023-06-22T11:58:40;11.93;;;7.07;;
74152;SDS011;62505;46.070;14.492;2023-06-22T12:01:07;9.55;;;7.57;;
74152;SDS011;62505;46.070;14.492;2023-06-22T12:03:34;9.77;;;6.65;;
74152;SDS011;62505;46.070;14.492;2023-06-22T12:06:02;9.60;;;6.82;;
74152;SDS011;62505;46.070;14.492;2023-06-22T12:08:29;11.15;;;7.40;;
74152;SDS011;62505;46.070;14.492;2023-06-22T12:10:56;8.68;;;7.40;;
74152;SDS011;62505;46.070;14.492;2023-06-22T12:13:23;9.48;;;7.22;;
74152;SDS011;62505;46.070;14.492;2023-06-22T12:15:49;11.25;;;7.63;;
74152;SDS011;62505;46.070;14.492;2023-06-22T12:18:17;9.82;;;6.75;;
74152;SDS011;62505;46.070;14.492;2023-06-22T12:20:45;7.70;;;6.38;;
74152;SDS011;62505;46.070;14.492;2023-06-22T12:23:14;9.77;;;7.03;;
74152;SDS011;62505;46.070;14.492;2023-06-22T12:25:41;11.85;;;7.38;;
74152;SDS011;62505;46.070;14.492;2023-06-22T12:28:11;11.75;;;7.13;;
74152;SDS011;62505;46.070;14.492;2023-06-22T12:30:38;9.43;;;7.13;;
74152;SDS011;62505;46.070;14.492;2023-06-22T12:33:04;8.30;;;6.75;;
74152;SDS011;62505;46.070;14.492;2023-06-22T12:35:31;9.95;;;7.15;;
74152;SDS011;62505;46.070;14.492;2023-06-22T12:37:58;9.05;;;7.13;;
74152;SDS011;62505;46.070;14.492;2023-06-22T12:40:26;10.32;;;7.30;;
74152;SDS011;62505;46.070;14.492;2023-06-22T12:42:53;9.20;;;7.22;;
74152;SDS011;62505;46.070;14.492;2023-06-22T12:45:20;10.30;;;6.43;;
74152;SDS011;62505;46.070;14.492;2023-06-22T12:47:47;8.68;;;6.90;;
74152;SDS011;62505;46.070;14.492;2023-06-22T12:50:15;9.57;;;6.75;;
74152;SDS011;62505;46.070;14.492;2023-06-22T12:52:42;7.45;;;6.63;;
74152;SDS011;62505;46.070;14.492;2023-06-22T12:55:09;9.02;;;7.00;;
74152;SDS011;62505;46.070;14.492;2023-06-22T12:57:37;8.07;;;6.45;;
74152;SDS011;62505;46.070;14.492;2023-06-22T13:00:05;11.15;;;7.10;;
74152;SDS011;62505;46.070;14.492;2023-06-22T13:02:33;8.68;;;6.68;;
74152;SDS011;62505;46.070;14.492;2023-06-22T13:05:00;9.13;;;7.00;;
74152;SDS011;62505;46.070;14.492;2023-06-22T13:07:27;7.40;;;5.85;;
74152;SDS011;62505;46.070;14.492;2023-06-22T13:09:54;8.75;;;7.10;;
74152;SDS011;62505;46.070;14.492;2023-06-22T13:12:21;8.00;;;6.75;;
74152;SDS011;62505;46.070;14.492;2023-06-22T13:14:49;8.50;;;6.55;;
74152;SDS011;62505;46.070;14.492;2023-06-22T13:17:16;8.32;;;6.55;;
74152;SDS011;62505;46.070;14.492;2023-06-22T13:19:43;9.15;;;7.15;;
74152;SDS011;62505;46.070;14.492;2023-06-22T13:22:25;7.63;;;6.05;;
74152;SDS011;62505;46.070;14.492;2023-06-22T13:24:54;7.43;;;6.57;;
74152;SDS011;62505;46.070;14.492;2023-06-22T13:27:21;7.38;;;5.95;;
74152;SDS011;62505;46.070;14.492;2023-06-22T13:29:49;7.40;;;6.57;;
74152;SDS011;62505;46.070;14.492;2023-06-22T13:32:16;7.55;;;6.47;;
74152;SDS011;62505;46.070;14.492;2023-06-22T13:34:43;8.95;;;6.53;;
74152;SDS011;62505;46.070;14.492;2023-06-22T13:37:09;9.50;;;7.25;;
74152;SDS011;62505;46.070;14.492;2023-06-22T13:39:36;7.38;;;6.00;;
74152;SDS011;62505;46.070;14.492;2023-06-22T13:42:04;7.97;;;6.13;;
74152;SDS011;62505;46.070;14.492;2023-06-22T13:44:31;8.25;;;6.82;;
74152;SDS011;62505;46.070;14.492;2023-06-22T13:46:59;7.32;;;6.32;;
74152;SDS011;62505;46.070;14.492;2023-06-22T13:49:26;9.43;;;6.47;;
74152;SDS011;62505;46.070;14.492;2023-06-22T13:51:53;8.43;;;6.97;;
74152;SDS011;62505;46.070;14.492;2023-06-22T13:54:21;9.00;;;6.53;;
74152;SDS011;62505;46.070;14.492;2023-06-22T13:56:48;9.40;;;6.80;;
74152;SDS011;62505;46.070;14.492;2023-06-22T13:59:15;8.77;;;6.35;;
74152;SDS011;62505;46.070;14.492;2023-06-22T14:01:42;8.10;;;6.47;;
74152;SDS011;62505;46.070;14.492;2023-06-22T14:04:10;8.35;;;6.57;;
74152;SDS011;62505;46.070;14.492;2023-06-22T14:06:37;9.55;;;6.53;;
74152;SDS011;62505;46.070;14.492;2023-06-22T14:09:04;8.23;;;6.47;;
74152;SDS011;62505;46.070;14.492;2023-06-22T14:11:32;7.43;;;6.53;;
74152;SDS011;62505;46.070;14.492;2023-06-22T14:13:58;7.00;;;6.25;;
74152;SDS011;62505;46.070;14.492;2023-06-22T14:16:25;7.88;;;6.05;;
74152;SDS011;62505;46.070;14.492;2023-06-22T14:18:52;6.03;;;5.40;;
74152;SDS011;62505;46.070;14.492;2023-06-22T14:21:20;8.38;;;6.85;;
74152;SDS011;62505;46.070;14.492;2023-06-22T14:23:47;9.43;;;6.00;;
74152;SDS011;62505;46.070;14.492;2023-06-22T14:26:15;7.53;;;6.30;;
74152;SDS011;62505;46.070;14.492;2023-06-22T14:28:43;7.15;;;6.40;;